createdAt,value
2018-05-24T00:02:12.250Z,5.90
2018-05-24T00:04:40.759Z,5.23
2018-05-24T00:07:09.054Z,8.13
2018-05-24T00:09:37.407Z,5.83
2018-05-24T00:12:05.701Z,5.50
2018-05-24T00:14:34.811Z,6.63
2018-05-24T00:17:03.111Z,6.70
2018-05-24T00:19:31.412Z,5.23
2018-05-24T00:21:59.718Z,4.60
2018-05-24T00:24:28.038Z,5.40
2018-05-24T00:26:57.147Z,9.43
2018-05-24T00:29:25.467Z,5.00
2018-05-24T00:31:53.985Z,5.93
2018-05-24T00:34:22.280Z,4.80
2018-05-24T00:36:50.252Z,5.03
2018-05-24T00:39:18.571Z,5.73
2018-05-24T00:41:46.884Z,7.17
2018-05-24T00:44:15.190Z,6.37
2018-05-24T00:46:45.101Z,8.57
2018-05-24T00:49:13.412Z,8.57
2018-05-24T00:51:41.725Z,5.10
2018-05-24T00:54:10.059Z,6.77
2018-05-24T00:56:38.355Z,4.97
2018-05-24T00:59:06.668Z,6.67
2018-05-24T01:01:34.979Z,7.13
2018-05-24T01:04:03.284Z,5.67
2018-05-24T01:06:31.593Z,5.30
2018-05-24T01:09:00.911Z,6.03
2018-05-24T01:11:29.217Z,6.00
2018-05-24T01:13:57.734Z,5.43
2018-05-24T01:16:26.026Z,7.50
2018-05-24T01:18:54.332Z,4.00
2018-05-24T01:21:22.653Z,4.57
2018-05-24T01:23:50.987Z,7.33
2018-05-24T01:26:18.947Z,5.07
2018-05-24T01:28:47.416Z,5.90
2018-05-24T01:31:15.726Z,6.40
2018-05-24T01:33:44.832Z,4.13
2018-05-24T01:36:13.887Z,6.20
2018-05-24T01:38:42.287Z,5.03
2018-05-24T01:41:10.748Z,5.17
2018-05-24T01:43:39.047Z,4.10
2018-05-24T01:46:07.353Z,5.83
2018-05-24T01:48:35.649Z,4.37
2018-05-24T01:51:03.974Z,5.53
2018-05-24T01:53:32.286Z,5.43
2018-05-24T01:56:00.589Z,4.70
2018-05-24T01:58:29.700Z,4.67
2018-05-24T02:00:58.131Z,8.30
2018-05-24T02:03:26.423Z,5.13
2018-05-24T02:05:54.730Z,4.87
2018-05-24T02:08:23.039Z,5.90
2018-05-24T02:10:51.343Z,5.83
2018-05-24T02:13:19.699Z,6.23
2018-05-24T02:15:48.032Z,8.23
2018-05-24T02:18:16.329Z,4.17
2018-05-24T02:20:44.618Z,3.40
2018-05-24T02:23:13.700Z,5.50
2018-05-24T02:25:42.004Z,5.50
2018-05-24T02:28:10.311Z,4.23
2018-05-24T02:30:38.801Z,5.33
2018-05-24T02:33:07.095Z,7.63
2018-05-24T02:35:35.417Z,4.60
2018-05-24T02:38:03.758Z,5.13
2018-05-24T02:40:31.736Z,5.47
2018-05-24T02:43:00.058Z,6.53
2018-05-24T02:45:28.555Z,4.87
2018-05-24T02:47:57.661Z,4.00
2018-05-24T02:50:25.987Z,5.10
2018-05-24T02:52:54.483Z,5.27
2018-05-24T02:55:22.795Z,7.47
2018-05-24T02:57:51.112Z,7.87
2018-05-24T03:00:19.404Z,4.70
2018-05-24T03:02:47.722Z,4.17
2018-05-24T03:05:16.030Z,6.33
2018-05-24T03:07:49.712Z,3.87
2018-05-24T03:10:18.017Z,7.23
2018-05-24T03:12:47.094Z,5.77
2018-05-24T03:15:15.455Z,3.50
2018-05-24T03:17:43.771Z,4.97
2018-05-24T03:20:12.083Z,3.90
2018-05-24T03:22:40.394Z,4.67
2018-05-24T03:25:08.720Z,5.67
2018-05-24T03:27:37.024Z,6.47
2018-05-24T03:30:05.350Z,3.73
2018-05-24T03:32:33.732Z,4.60
2018-05-24T03:35:02.042Z,3.53
2018-05-24T03:37:30.379Z,5.30
2018-05-24T03:39:58.855Z,5.60
2018-05-24T03:42:27.176Z,5.13
2018-05-24T03:44:55.472Z,4.17
2018-05-24T03:47:26.564Z,5.33
2018-05-24T03:49:54.873Z,5.53
2018-05-24T03:52:23.171Z,4.13
2018-05-24T03:54:51.483Z,3.77
2018-05-24T03:57:19.784Z,3.43
2018-05-24T04:00:08.256Z,3.17
2018-05-24T04:02:47.822Z,3.83
2018-05-24T04:05:16.156Z,3.87
2018-05-24T04:07:45.642Z,5.83
2018-05-24T04:10:13.940Z,5.33
2018-05-24T04:12:42.267Z,4.53
2018-05-24T04:15:10.585Z,4.93
2018-05-24T04:17:38.885Z,6.00
2018-05-24T04:20:07.198Z,5.37
2018-05-24T04:22:35.541Z,3.97
2018-05-24T04:25:04.290Z,7.10
2018-05-24T04:27:32.605Z,4.20
2018-05-24T04:30:01.099Z,5.10
2018-05-24T04:32:29.416Z,3.57
2018-05-24T04:34:57.733Z,6.03
2018-05-24T04:37:26.059Z,3.57
2018-05-24T04:39:54.164Z,3.87
2018-05-24T04:42:22.468Z,4.27
2018-05-24T04:44:51.552Z,3.70
2018-05-24T04:47:19.872Z,4.00
2018-05-24T04:49:48.959Z,3.57
2018-05-24T04:52:17.322Z,5.77
2018-05-24T04:54:45.935Z,4.40
2018-05-24T04:57:14.251Z,4.97
2018-05-24T04:59:42.585Z,4.50
2018-05-24T05:02:10.884Z,4.73
2018-05-24T05:04:39.226Z,6.20
2018-05-24T05:07:07.738Z,5.20
2018-05-24T05:09:36.036Z,5.40
2018-05-24T05:12:07.425Z,5.23
2018-05-24T05:14:35.801Z,6.10
2018-05-24T05:17:04.888Z,5.77
2018-05-24T05:19:33.202Z,4.50
2018-05-24T05:22:01.722Z,5.20
2018-05-24T05:24:30.036Z,5.50
2018-05-24T05:26:58.105Z,4.73
2018-05-24T05:29:26.431Z,4.43
2018-05-24T05:31:54.747Z,5.90
2018-05-24T05:34:23.227Z,3.23
2018-05-24T05:36:53.074Z,4.30
2018-05-24T05:39:21.377Z,4.90
2018-05-24T05:41:49.700Z,5.00
2018-05-24T05:44:18.023Z,4.40
2018-05-24T05:46:47.104Z,4.43
2018-05-24T05:49:15.462Z,4.30
2018-05-24T05:51:43.760Z,6.20
2018-05-24T05:54:12.102Z,4.73
2018-05-24T05:56:40.492Z,4.97
2018-05-24T05:59:08.808Z,6.27
2018-05-24T06:01:37.185Z,6.60
2018-05-24T06:04:07.362Z,5.90
2018-05-24T06:06:35.674Z,5.10
2018-05-24T06:09:03.179Z,4.67
2018-05-24T06:11:31.516Z,4.37
2018-05-24T06:13:59.650Z,4.93
2018-05-24T06:16:28.742Z,5.27
2018-05-24T06:18:57.159Z,5.43
2018-05-24T06:21:25.463Z,6.47
2018-05-24T06:23:54.337Z,4.22
2018-05-24T06:26:22.657Z,5.00
2018-05-24T06:28:51.551Z,7.55
2018-05-24T06:31:20.434Z,4.72
2018-05-24T06:33:49.300Z,4.82
2018-05-24T06:36:18.236Z,5.30
2018-05-24T06:38:47.143Z,4.40
2018-05-24T06:41:16.018Z,4.65
2018-05-24T06:43:44.914Z,5.43
2018-05-24T06:46:13.779Z,6.25
2018-05-24T06:48:43.429Z,7.53
2018-05-24T06:51:12.283Z,5.12
2018-05-24T06:53:41.626Z,4.15
2018-05-24T06:56:10.589Z,7.18
2018-05-24T06:58:39.481Z,5.10
2018-05-24T07:01:08.570Z,4.82
2018-05-24T07:03:37.608Z,3.92
2018-05-24T07:06:07.278Z,5.47
2018-05-24T07:08:36.148Z,5.00
2018-05-24T07:11:05.930Z,5.37
2018-05-24T07:13:35.684Z,4.47
2018-05-24T07:16:04.836Z,5.75
2018-05-24T07:18:33.725Z,4.30
2018-05-24T07:21:02.808Z,3.85
2018-05-24T07:23:31.684Z,5.97
2018-05-24T07:26:00.723Z,4.90
2018-05-24T07:28:29.590Z,5.28
2018-05-24T07:30:58.658Z,6.68
2018-05-24T07:33:27.556Z,5.60
2018-05-24T07:35:56.435Z,4.03
2018-05-24T07:38:25.372Z,5.75
2018-05-24T07:40:54.243Z,3.78
2018-05-24T07:43:23.142Z,5.25
2018-05-24T07:45:51.999Z,6.00
2018-05-24T07:48:21.677Z,5.53
2018-05-24T07:53:25.212Z,3.08
2018-05-24T07:55:54.076Z,8.35
2018-05-24T07:58:22.960Z,5.07
2018-05-24T08:00:51.829Z,4.68
2018-05-24T08:03:20.737Z,5.87
2018-05-24T08:05:49.633Z,8.52
2018-05-24T08:08:18.728Z,5.53
2018-05-24T08:10:47.606Z,5.22
2018-05-24T08:13:16.465Z,4.35
2018-05-24T08:15:44.800Z,6.00
2018-05-24T08:18:13.689Z,6.03
2018-05-24T08:20:42.580Z,5.60
2018-05-24T08:23:11.450Z,6.75
2018-05-24T08:25:40.382Z,4.90
2018-05-24T08:28:09.282Z,4.03
2018-05-24T08:30:38.321Z,5.37
2018-05-24T08:33:07.187Z,4.93
2018-05-24T08:35:36.107Z,4.85
2018-05-24T08:38:05.750Z,7.47
2018-05-24T08:40:34.715Z,6.15
2018-05-24T08:43:03.748Z,5.37
2018-05-24T08:45:32.619Z,5.43
2018-05-24T08:48:01.546Z,5.32
2018-05-24T08:50:30.436Z,5.70
2018-05-24T08:52:59.299Z,7.28
2018-05-24T08:55:28.980Z,6.68
2018-05-24T08:57:57.857Z,5.68
2018-05-24T09:00:26.833Z,7.50
2018-05-24T09:02:55.459Z,5.12
2018-05-24T09:05:24.347Z,6.28
2018-05-24T09:07:53.226Z,5.12
2018-05-24T09:10:22.120Z,3.58
2018-05-24T09:12:50.994Z,5.30
2018-05-24T09:15:19.901Z,5.15
2018-05-24T09:17:49.540Z,6.07
2018-05-24T09:20:18.507Z,6.93
2018-05-24T09:22:47.513Z,8.07
2018-05-24T09:25:16.405Z,5.70
2018-05-24T09:27:46.060Z,6.68
2018-05-24T09:30:14.984Z,7.15
2018-05-24T09:32:43.844Z,6.45
2018-05-24T09:35:12.733Z,8.70
2018-05-24T09:37:41.628Z,6.45
2018-05-24T09:40:10.517Z,8.15
2018-05-24T09:42:39.425Z,8.95
2018-05-24T09:45:08.288Z,8.05
2018-05-24T09:47:37.186Z,8.35
2018-05-24T09:50:06.059Z,6.28
2018-05-24T09:52:34.931Z,6.78
2018-05-24T09:55:03.860Z,7.50
2018-05-24T09:57:32.745Z,6.30
2018-05-24T10:00:01.646Z,6.82
2018-05-24T10:02:30.992Z,6.03
2018-05-24T10:04:59.860Z,7.82
2018-05-24T10:07:28.923Z,8.20
2018-05-24T10:09:57.798Z,6.93
2018-05-24T10:12:26.465Z,8.50
2018-05-24T10:14:55.342Z,7.78
2018-05-24T10:17:23.889Z,7.70
2018-05-24T10:19:52.778Z,11.82
2018-05-24T10:22:22.444Z,7.55
2018-05-24T10:24:51.439Z,9.55
2018-05-24T10:27:20.342Z,8.93
2018-05-24T10:29:49.429Z,8.95
2018-05-24T10:32:18.314Z,8.93
2018-05-24T10:34:47.228Z,9.52
2018-05-24T10:37:16.081Z,7.95
2018-05-24T10:39:44.973Z,8.65
2018-05-24T10:42:13.835Z,6.53
2018-05-24T10:44:42.739Z,6.28
2018-05-24T10:47:11.406Z,7.62
2018-05-24T10:49:40.295Z,7.97
2018-05-24T10:52:09.163Z,9.38
2018-05-24T10:54:38.037Z,8.13
2018-05-24T10:57:06.915Z,6.80
2018-05-24T10:59:35.822Z,7.53
2018-05-24T11:02:04.888Z,7.00
2018-05-24T11:04:33.805Z,8.73
2018-05-24T11:07:02.705Z,6.93
2018-05-24T11:09:31.612Z,9.45
2018-05-24T11:12:00.497Z,8.73
2018-05-24T11:14:29.464Z,7.00
2018-05-24T11:16:58.461Z,11.73
2018-05-24T11:19:27.341Z,8.02
2018-05-24T11:21:56.227Z,9.20
2018-05-24T11:24:25.116Z,9.43
2018-05-24T11:26:53.994Z,13.45
2018-05-24T11:29:22.902Z,15.02
2018-05-24T11:31:51.902Z,10.35
2018-05-24T11:34:20.883Z,13.05
2018-05-24T11:36:49.762Z,12.65
2018-05-24T11:39:19.447Z,9.65
2018-05-24T11:41:48.338Z,10.88
2018-05-24T11:44:17.221Z,10.27
2018-05-24T11:46:46.293Z,10.00
2018-05-24T11:49:15.184Z,14.15
2018-05-24T11:51:44.079Z,10.70
2018-05-24T11:54:12.969Z,10.32
2018-05-24T11:56:41.568Z,9.75
2018-05-24T11:59:10.457Z,12.48
2018-05-24T12:01:39.354Z,10.05
2018-05-24T12:04:08.253Z,12.57
2018-05-24T12:06:37.131Z,9.48
2018-05-24T12:09:05.481Z,11.15
2018-05-24T12:11:34.377Z,9.93
2018-05-24T12:14:03.282Z,10.25
2018-05-24T12:16:32.167Z,10.77
2018-05-24T12:19:01.047Z,10.07
2018-05-24T12:21:29.925Z,10.68
2018-05-24T12:23:58.955Z,10.80
2018-05-24T12:26:28.133Z,11.80
2018-05-24T12:28:57.025Z,10.85
2018-05-24T12:31:25.895Z,11.55
2018-05-24T12:33:54.814Z,10.85
2018-05-24T12:36:23.698Z,11.32
2018-05-24T12:38:52.586Z,16.95
2018-05-24T12:41:20.921Z,12.20
2018-05-24T12:43:49.813Z,12.77
2018-05-24T12:46:18.695Z,13.20
2018-05-24T12:48:47.612Z,15.43
2018-05-24T12:51:16.534Z,13.85
2018-05-24T12:53:46.293Z,13.00
2018-05-24T12:56:15.207Z,13.88
2018-05-24T12:58:44.098Z,14.00
2018-05-24T13:01:12.984Z,13.13
2018-05-24T13:03:41.879Z,13.68
2018-05-24T13:06:10.772Z,14.10
2018-05-24T13:08:39.666Z,13.10
2018-05-24T13:11:08.610Z,12.40
2018-05-24T13:13:38.219Z,13.95
2018-05-24T13:16:07.119Z,12.90
2018-05-24T13:18:36.087Z,12.82
2018-05-24T13:21:05.023Z,13.73
2018-05-24T13:23:33.939Z,13.60
2018-05-24T13:26:02.824Z,15.43
2018-05-24T13:28:31.704Z,13.02
2018-05-24T13:31:00.595Z,13.60
2018-05-24T13:33:29.207Z,15.77
2018-05-24T13:35:58.096Z,13.38
2018-05-24T13:38:26.968Z,13.18
2018-05-24T13:40:55.897Z,14.02
2018-05-24T13:43:24.808Z,14.15
2018-05-24T13:45:53.707Z,19.75
2018-05-24T13:48:22.590Z,14.38
2018-05-24T13:50:51.531Z,14.30
2018-05-24T13:53:20.425Z,14.98
2018-05-24T13:55:49.323Z,13.65
2018-05-24T13:58:19.245Z,16.10
2018-05-24T14:00:48.948Z,15.43
2018-05-24T14:03:17.846Z,14.73
2018-05-24T14:05:46.748Z,15.63
2018-05-24T14:08:16.438Z,18.08
2018-05-24T14:10:45.335Z,18.65
2018-05-24T14:13:14.276Z,17.77
2018-05-24T14:15:43.203Z,19.10
2018-05-24T14:18:12.119Z,18.12
2018-05-24T14:20:41.134Z,18.35
2018-05-24T14:23:10.029Z,18.62
2018-05-24T14:25:38.945Z,18.45
2018-05-24T14:28:07.880Z,18.98
2018-05-24T14:30:36.795Z,18.92
2018-05-24T14:33:05.695Z,19.27
2018-05-24T14:35:34.618Z,19.83
2018-05-24T14:38:04.038Z,21.65
2018-05-24T14:40:32.935Z,19.87
2018-05-24T14:43:01.845Z,19.90
2018-05-24T14:45:30.757Z,21.98
2018-05-24T14:50:53.393Z,21.27
2018-05-24T14:53:22.319Z,21.75
2018-05-24T14:55:51.225Z,20.62
2018-05-24T14:58:20.319Z,20.73
2018-05-24T15:00:49.215Z,21.52
2018-05-24T15:03:18.121Z,20.48
2018-05-24T15:05:47.256Z,20.62
2018-05-24T15:08:16.170Z,22.55
2018-05-24T15:10:45.216Z,21.60
2018-05-24T15:13:25.449Z,22.35
2018-05-24T15:15:54.374Z,19.75
2018-05-24T15:18:24.155Z,20.30
2018-05-24T15:20:53.070Z,19.95
2018-05-24T15:23:31.059Z,21.33
2018-05-24T15:25:59.950Z,21.12
2018-05-24T15:28:28.860Z,20.60
2018-05-24T15:30:57.848Z,21.50
2018-05-24T15:33:26.828Z,20.48
2018-05-24T15:35:55.890Z,18.87
2018-05-24T15:38:24.851Z,18.73
2018-05-24T15:40:53.770Z,19.55
2018-05-24T15:43:22.942Z,19.67
2018-05-24T15:45:51.873Z,18.50
2018-05-24T15:48:20.776Z,18.55
2018-05-24T15:50:49.732Z,20.20
2018-05-24T15:53:18.835Z,19.30
2018-05-24T15:55:47.713Z,19.27
2018-05-24T15:58:16.657Z,18.67
2018-05-24T16:00:45.549Z,20.73
2018-05-24T16:03:15.239Z,20.15
2018-05-24T16:05:44.168Z,19.37
2018-05-24T16:08:13.138Z,18.75
2018-05-24T16:10:42.032Z,16.85
2018-05-24T16:13:10.987Z,18.77
2018-05-24T16:15:39.955Z,16.67
2018-05-24T16:18:08.871Z,15.68
2018-05-24T16:20:37.778Z,14.80
2018-05-24T16:23:06.676Z,13.77
2018-05-24T16:25:35.019Z,12.85
2018-05-24T16:28:03.947Z,11.50
2018-05-24T16:30:32.826Z,10.50
2018-05-24T16:33:01.727Z,10.20
2018-05-24T16:35:30.617Z,11.75
2018-05-24T16:37:59.488Z,14.20
2018-05-24T16:40:28.425Z,10.88
2018-05-24T16:42:57.324Z,14.00
2018-05-24T16:45:26.195Z,8.88
2018-05-24T16:47:55.086Z,10.35
2018-05-24T16:50:23.963Z,9.40
2018-05-24T16:52:52.842Z,11.55
2018-05-24T16:55:21.738Z,10.10
2018-05-24T16:57:50.637Z,8.60
2018-05-24T17:00:19.523Z,9.60
2018-05-24T17:02:48.404Z,9.77
2018-05-24T17:05:17.320Z,7.87
2018-05-24T17:07:46.438Z,11.20
2018-05-24T17:10:15.166Z,10.68
2018-05-24T17:12:44.061Z,8.32
2018-05-24T17:15:12.933Z,7.43
2018-05-24T17:17:41.841Z,8.18
2018-05-24T17:20:10.753Z,8.32
2018-05-24T17:22:39.625Z,12.15
2018-05-24T17:25:08.506Z,9.63
2018-05-24T17:27:37.458Z,9.40
2018-05-24T17:30:06.349Z,8.60
2018-05-24T17:32:35.282Z,9.30
2018-05-24T17:35:04.489Z,8.82
2018-05-24T17:37:33.437Z,9.40
2018-05-24T17:40:02.309Z,8.50
2018-05-24T17:42:32.004Z,9.30
2018-05-24T17:45:01.114Z,9.05
2018-05-24T17:47:30.037Z,9.00
2018-05-24T17:49:58.954Z,8.98
2018-05-24T17:52:27.992Z,9.48
2018-05-24T17:54:58.133Z,8.65
2018-05-24T17:57:27.413Z,8.38
2018-05-24T17:59:56.364Z,9.73
2018-05-24T18:02:25.413Z,10.02
2018-05-24T18:04:54.312Z,8.32
2018-05-24T18:07:23.203Z,9.50
2018-05-24T18:09:52.550Z,8.52
2018-05-24T18:12:21.486Z,9.20
2018-05-24T18:14:50.437Z,9.70
2018-05-24T18:17:19.510Z,9.25
2018-05-24T18:19:48.421Z,9.60
2018-05-24T18:22:17.139Z,9.93
2018-05-24T18:24:46.099Z,9.25
2018-05-24T18:27:15.088Z,9.80
2018-05-24T18:29:43.998Z,9.80
2018-05-24T18:32:12.883Z,10.98
2018-05-24T18:34:41.249Z,10.20
2018-05-24T18:37:10.176Z,11.98
2018-05-24T18:39:39.239Z,11.40
2018-05-24T18:42:08.905Z,11.07
2018-05-24T18:44:37.807Z,11.60
2018-05-24T18:47:06.730Z,10.90
2018-05-24T18:49:35.643Z,10.82
2018-05-24T18:52:05.220Z,11.38
2018-05-24T18:54:34.113Z,12.07
2018-05-24T18:57:03.042Z,12.05
2018-05-24T18:59:32.047Z,11.60
2018-05-24T19:02:00.985Z,11.32
2018-05-24T19:04:30.250Z,11.95
2018-05-24T19:06:59.183Z,12.93
2018-05-24T19:09:28.224Z,13.80
2018-05-24T19:11:57.140Z,12.82
2018-05-24T19:14:25.775Z,13.33
2018-05-24T19:16:54.707Z,13.05
2018-05-24T19:19:23.616Z,12.60
2018-05-24T19:21:52.528Z,15.82
2018-05-24T19:24:22.201Z,13.38
2018-05-24T19:26:51.102Z,13.20
2018-05-24T19:29:20.044Z,13.73
2018-05-24T19:31:48.951Z,13.45
2018-05-24T19:34:18.041Z,13.48
2018-05-24T19:36:46.915Z,14.05
2018-05-24T19:39:15.820Z,13.48
2018-05-24T19:41:44.728Z,13.48
2018-05-24T19:44:13.779Z,14.23
2018-05-24T19:46:42.678Z,13.40
2018-05-24T19:49:11.615Z,12.48
2018-05-24T19:51:40.516Z,16.35
2018-05-24T19:54:09.424Z,13.82
2018-05-24T19:56:38.326Z,13.20
2018-05-24T19:59:07.239Z,13.38
2018-05-24T20:01:36.162Z,14.87
2018-05-24T20:04:05.846Z,12.55
2018-05-24T20:06:34.746Z,13.25
2018-05-24T20:09:03.186Z,13.85
2018-05-24T20:11:32.089Z,13.52
2018-05-24T20:14:01.048Z,13.75
2018-05-24T20:16:29.937Z,14.70
2018-05-24T20:18:58.834Z,13.95
2018-05-24T20:21:27.716Z,14.25
2018-05-24T20:23:56.666Z,14.80
2018-05-24T20:26:25.023Z,14.27
2018-05-24T20:28:54.091Z,16.55
2018-05-24T20:31:23.102Z,16.25
2018-05-24T20:33:51.430Z,15.43
2018-05-24T20:36:20.345Z,15.98
2018-05-24T20:38:48.695Z,14.87
2018-05-24T20:41:17.598Z,14.77
2018-05-24T20:43:45.954Z,15.23
2018-05-24T20:46:14.260Z,15.93
2018-05-24T20:48:42.377Z,15.23
2018-05-24T20:51:10.706Z,15.60
2018-05-24T20:53:39.912Z,16.97
2018-05-24T20:56:08.217Z,16.80
2018-05-24T20:58:39.714Z,17.10
2018-05-24T21:01:08.052Z,16.43
2018-05-24T21:03:36.975Z,16.50
2018-05-24T21:06:05.331Z,17.77
2018-05-24T21:08:33.318Z,18.33
2018-05-24T21:11:01.663Z,17.27
2018-05-24T21:13:30.004Z,17.73
2018-05-24T21:15:59.114Z,19.00
2018-05-24T21:18:27.462Z,17.67
2018-05-24T21:20:55.815Z,18.60
2018-05-24T21:23:24.181Z,17.87
2018-05-24T21:25:52.521Z,17.80
2018-05-24T21:28:20.831Z,18.87
2018-05-24T21:30:49.170Z,18.30
2018-05-24T21:33:17.480Z,18.37
2018-05-24T21:35:46.589Z,17.83
2018-05-24T21:38:14.905Z,19.33
2018-05-24T21:40:43.223Z,19.70
2018-05-24T21:43:11.600Z,18.97
2018-05-24T21:45:39.929Z,18.80
2018-05-24T21:48:08.261Z,19.20
2018-05-24T21:50:36.602Z,19.93
2018-05-24T21:53:10.904Z,19.30
2018-05-24T21:55:39.230Z,20.50
2018-05-24T21:58:10.727Z,19.50
2018-05-24T22:00:45.348Z,19.67
2018-05-24T22:03:13.708Z,20.53
2018-05-24T22:05:42.030Z,19.77
2018-05-24T22:08:11.130Z,20.73
2018-05-24T22:10:39.500Z,22.10
2018-05-24T22:13:08.583Z,20.63
2018-05-24T22:15:36.907Z,20.93
2018-05-24T22:18:04.907Z,20.27
2018-05-24T22:20:33.235Z,20.57
2018-05-24T22:23:02.382Z,21.37
2018-05-24T22:25:30.706Z,19.97
2018-05-24T22:27:59.038Z,21.67
2018-05-24T22:30:27.371Z,21.20
2018-05-24T22:32:55.723Z,19.97
2018-05-24T22:35:24.057Z,20.50
2018-05-24T22:37:52.389Z,21.03
2018-05-24T22:40:20.732Z,20.03
2018-05-24T22:42:49.812Z,20.77
2018-05-24T22:45:18.128Z,20.93
2018-05-24T22:47:46.483Z,20.87
2018-05-24T22:50:15.575Z,21.17
2018-05-24T22:52:44.144Z,21.27
2018-05-24T22:55:12.453Z,21.77
2018-05-24T22:57:40.774Z,23.00
2018-05-24T23:00:08.872Z,23.57
2018-05-24T23:02:37.207Z,23.13
2018-05-24T23:05:05.458Z,25.07
2018-05-24T23:07:33.907Z,25.77
2018-05-24T23:10:02.219Z,25.00
2018-05-24T23:12:30.547Z,25.23
2018-05-24T23:14:58.879Z,25.77
2018-05-24T23:17:27.202Z,25.57
2018-05-24T23:19:55.528Z,25.70
2018-05-24T23:22:35.697Z,26.27
2018-05-24T23:25:03.699Z,24.37
2018-05-24T23:27:32.031Z,25.23
2018-05-24T23:30:00.344Z,25.37
2018-05-24T23:32:28.884Z,26.33
2018-05-24T23:34:57.214Z,25.53
2018-05-24T23:37:25.529Z,26.73
2018-05-24T23:39:53.851Z,26.00
2018-05-24T23:42:22.192Z,25.80
2018-05-24T23:44:51.317Z,25.43
2018-05-24T23:47:19.619Z,26.03
2018-05-24T23:49:47.947Z,27.03
2018-05-24T23:52:17.048Z,26.53
2018-05-24T23:54:46.487Z,27.40
2018-05-24T23:57:14.820Z,25.80
2018-05-24T23:59:43.163Z,25.63
